sensor_id;sensor_type;location;lat;lon;timestamp;pressure;altitude;pressure_sealevel;temperature;humidity
77041;BME280;65974;42.664;23.264;2023-05-07T00:00:59;94634.06;;;10.03;73.74
77041;BME280;65974;42.664;23.264;2023-05-07T00:03:25;94632.06;;;9.90;73.87
77041;BME280;65974;42.664;23.264;2023-05-07T00:05:51;94631.63;;;9.84;74.80
77041;BME280;65974;42.664;23.264;2023-05-07T00:08:18;94626.69;;;9.83;74.75
77041;BME280;65974;42.664;23.264;2023-05-07T00:10:43;94633.88;;;9.82;74.38
77041;BME280;65974;42.664;23.264;2023-05-07T00:13:09;94630.44;;;9.78;75.18
77041;BME280;65974;42.664;23.264;2023-05-07T00:15:35;94626.66;;;9.79;75.11
77041;BME280;65974;42.664;23.264;2023-05-07T00:18:00;94626.31;;;9.84;75.47
77041;BME280;65974;42.664;23.264;2023-05-07T00:20:26;94622.53;;;9.85;75.46
77041;BME280;65974;42.664;23.264;2023-05-07T00:22:51;94617.19;;;9.85;75.56
77041;BME280;65974;42.664;23.264;2023-05-07T00:25:17;94616.06;;;9.86;75.41
77041;BME280;65974;42.664;23.264;2023-05-07T00:27:44;94612.91;;;9.74;75.31
77041;BME280;65974;42.664;23.264;2023-05-07T00:30:10;94616.16;;;9.53;76.00
77041;BME280;65974;42.664;23.264;2023-05-07T00:32:36;94622.25;;;9.54;75.91
77041;BME280;65974;42.664;23.264;2023-05-07T00:35:02;94618.41;;;9.51;75.66
77041;BME280;65974;42.664;23.264;2023-05-07T00:37:28;94617.56;;;9.44;76.32
77041;BME280;65974;42.664;23.264;2023-05-07T00:39:53;94622.34;;;9.27;77.06
77041;BME280;65974;42.664;23.264;2023-05-07T00:42:18;94622.31;;;9.24;76.80
77041;BME280;65974;42.664;23.264;2023-05-07T00:44:44;94622.53;;;9.12;77.57
77041;BME280;65974;42.664;23.264;2023-05-07T00:47:10;94631.19;;;9.05;77.42
77041;BME280;65974;42.664;23.264;2023-05-07T00:49:44;94626.75;;;9.13;76.91
77041;BME280;65974;42.664;23.264;2023-05-07T00:52:15;94632.44;;;9.11;77.06
77041;BME280;65974;42.664;23.264;2023-05-07T00:54:41;94634.78;;;9.20;76.76
77041;BME280;65974;42.664;23.264;2023-05-07T00:57:10;94630.22;;;9.20;77.18
77041;BME280;65974;42.664;23.264;2023-05-07T00:59:36;94625.28;;;9.19;77.02
77041;BME280;65974;42.664;23.264;2023-05-07T01:02:02;94628.44;;;9.28;77.03
77041;BME280;65974;42.664;23.264;2023-05-07T01:04:27;94637.09;;;9.21;76.89
77041;BME280;65974;42.664;23.264;2023-05-07T01:06:54;94632.50;;;9.18;77.07
77041;BME280;65974;42.664;23.264;2023-05-07T01:09:22;94630.97;;;9.17;76.62
77041;BME280;65974;42.664;23.264;2023-05-07T01:11:49;94622.59;;;9.15;76.82
77041;BME280;65974;42.664;23.264;2023-05-07T01:14:16;94633.19;;;9.12;76.97
77041;BME280;65974;42.664;23.264;2023-05-07T01:16:42;94623.31;;;9.12;77.26
77041;BME280;65974;42.664;23.264;2023-05-07T01:19:11;94628.53;;;9.05;77.63
77041;BME280;65974;42.664;23.264;2023-05-07T01:21:41;94628.41;;;8.95;77.86
77041;BME280;65974;42.664;23.264;2023-05-07T01:24:10;94634.50;;;8.95;77.72
77041;BME280;65974;42.664;23.264;2023-05-07T01:26:36;94629.09;;;8.88;77.96
77041;BME280;65974;42.664;23.264;2023-05-07T01:29:02;94629.16;;;8.92;78.14
77041;BME280;65974;42.664;23.264;2023-05-07T01:31:27;94635.00;;;8.75;78.10
77041;BME280;65974;42.664;23.264;2023-05-07T01:33:54;94635.72;;;8.72;78.40
77041;BME280;65974;42.664;23.264;2023-05-07T01:36:23;94631.19;;;8.72;78.44
77041;BME280;65974;42.664;23.264;2023-05-07T01:38:53;94621.25;;;8.66;78.99
77041;BME280;65974;42.664;23.264;2023-05-07T01:41:19;94625.75;;;8.62;78.85
77041;BME280;65974;42.664;23.264;2023-05-07T01:43:45;94611.91;;;8.49;79.13
77041;BME280;65974;42.664;23.264;2023-05-07T01:46:12;94612.88;;;8.37;79.81
77041;BME280;65974;42.664;23.264;2023-05-07T01:48:38;94612.09;;;8.33;80.54
77041;BME280;65974;42.664;23.264;2023-05-07T01:51:05;94607.72;;;8.22;80.15
77041;BME280;65974;42.664;23.264;2023-05-07T01:53:40;94618.53;;;8.10;80.84
77041;BME280;65974;42.664;23.264;2023-05-07T01:56:06;94609.34;;;8.04;80.95
77041;BME280;65974;42.664;23.264;2023-05-07T01:58:32;94603.69;;;8.05;80.79
77041;BME280;65974;42.664;23.264;2023-05-07T02:00:57;94604.78;;;8.01;81.34
77041;BME280;65974;42.664;23.264;2023-05-07T02:03:22;94601.22;;;7.93;81.24
77041;BME280;65974;42.664;23.264;2023-05-07T02:05:48;94606.50;;;7.90;81.69
77041;BME280;65974;42.664;23.264;2023-05-07T02:08:13;94598.13;;;7.88;81.77
77041;BME280;65974;42.664;23.264;2023-05-07T02:10:39;94597.72;;;7.86;81.12
77041;BME280;65974;42.664;23.264;2023-05-07T02:13:04;94597.06;;;7.92;81.25
77041;BME280;65974;42.664;23.264;2023-05-07T02:15:30;94596.63;;;7.90;81.14
77041;BME280;65974;42.664;23.264;2023-05-07T02:18:07;94590.22;;;7.91;81.51
77041;BME280;65974;42.664;23.264;2023-05-07T02:20:33;94590.34;;;7.98;80.78
77041;BME280;65974;42.664;23.264;2023-05-07T02:22:58;94586.22;;;8.01;80.65
77041;BME280;65974;42.664;23.264;2023-05-07T02:25:24;94592.78;;;8.10;80.56
77041;BME280;65974;42.664;23.264;2023-05-07T02:27:49;94590.81;;;8.07;80.63
77041;BME280;65974;42.664;23.264;2023-05-07T02:30:15;94595.31;;;8.03;80.49
77041;BME280;65974;42.664;23.264;2023-05-07T02:32:41;94590.63;;;7.93;80.62
77041;BME280;65974;42.664;23.264;2023-05-07T02:35:07;94584.78;;;7.84;80.64
77041;BME280;65974;42.664;23.264;2023-05-07T02:37:33;94589.66;;;7.78;80.78
77041;BME280;65974;42.664;23.264;2023-05-07T02:39:58;94589.47;;;7.68;81.29
77041;BME280;65974;42.664;23.264;2023-05-07T02:42:23;94587.84;;;7.60;81.93
77041;BME280;65974;42.664;23.264;2023-05-07T02:44:49;94593.19;;;7.63;81.91
77041;BME280;65974;42.664;23.264;2023-05-07T02:47:15;94593.13;;;7.60;81.37
77041;BME280;65974;42.664;23.264;2023-05-07T02:49:40;94594.06;;;7.71;82.13
77041;BME280;65974;42.664;23.264;2023-05-07T02:52:06;94594.69;;;7.87;81.29
77041;BME280;65974;42.664;23.264;2023-05-07T02:54:32;94596.88;;;7.81;81.08
77041;BME280;65974;42.664;23.264;2023-05-07T02:56:57;94599.19;;;7.83;81.73
77041;BME280;65974;42.664;23.264;2023-05-07T02:59:23;94598.22;;;7.95;81.21
77041;BME280;65974;42.664;23.264;2023-05-07T03:01:50;94604.69;;;7.97;80.75
77041;BME280;65974;42.664;23.264;2023-05-07T03:04:15;94608.94;;;8.02;80.68
77041;BME280;65974;42.664;23.264;2023-05-07T03:06:41;94607.56;;;7.85;80.71
77041;BME280;65974;42.664;23.264;2023-05-07T03:09:06;94610.50;;;7.80;80.89
77041;BME280;65974;42.664;23.264;2023-05-07T03:11:32;94611.47;;;7.68;82.03
77041;BME280;65974;42.664;23.264;2023-05-07T03:13:57;94608.97;;;7.56;82.05
77041;BME280;65974;42.664;23.264;2023-05-07T03:16:23;94617.16;;;7.48;82.11
77041;BME280;65974;42.664;23.264;2023-05-07T03:18:48;94620.53;;;7.45;82.65
77041;BME280;65974;42.664;23.264;2023-05-07T03:21:14;94617.28;;;7.55;82.04
77041;BME280;65974;42.664;23.264;2023-05-07T03:23:39;94610.63;;;7.64;81.88
77041;BME280;65974;42.664;23.264;2023-05-07T03:26:05;94616.22;;;7.59;81.94
77041;BME280;65974;42.664;23.264;2023-05-07T03:28:30;94619.50;;;7.53;82.52
77041;BME280;65974;42.664;23.264;2023-05-07T03:30:56;94617.44;;;7.43;82.98
77041;BME280;65974;42.664;23.264;2023-05-07T03:33:21;94612.03;;;7.36;82.85
77041;BME280;65974;42.664;23.264;2023-05-07T03:35:47;94621.84;;;7.35;83.56
77041;BME280;65974;42.664;23.264;2023-05-07T03:38:12;94625.97;;;7.33;83.61
77041;BME280;65974;42.664;23.264;2023-05-07T03:40:37;94633.16;;;7.32;83.04
77041;BME280;65974;42.664;23.264;2023-05-07T03:43:03;94625.63;;;7.34;83.37
77041;BME280;65974;42.664;23.264;2023-05-07T03:45:28;94632.22;;;7.44;83.47
77041;BME280;65974;42.664;23.264;2023-05-07T03:47:54;94631.13;;;7.45;82.99
77041;BME280;65974;42.664;23.264;2023-05-07T03:50:19;94630.06;;;7.49;83.32
77041;BME280;65974;42.664;23.264;2023-05-07T03:52:45;94628.09;;;7.46;83.63
77041;BME280;65974;42.664;23.264;2023-05-07T03:55:11;94631.94;;;7.49;83.93
77041;BME280;65974;42.664;23.264;2023-05-07T03:57:36;94625.50;;;7.50;83.23
77041;BME280;65974;42.664;23.264;2023-05-07T04:00:02;94631.75;;;7.61;83.45
77041;BME280;65974;42.664;23.264;2023-05-07T04:02:29;94635.59;;;7.63;82.73
77041;BME280;65974;42.664;23.264;2023-05-07T04:04:54;94645.84;;;7.65;82.69
77041;BME280;65974;42.664;23.264;2023-05-07T04:07:19;94651.97;;;7.69;82.73
77041;BME280;65974;42.664;23.264;2023-05-07T04:09:45;94650.22;;;7.76;82.30
77041;BME280;65974;42.664;23.264;2023-05-07T04:12:10;94660.09;;;7.79;82.20
77041;BME280;65974;42.664;23.264;2023-05-07T04:14:36;94671.34;;;7.96;81.70
77041;BME280;65974;42.664;23.264;2023-05-07T04:17:01;94666.22;;;8.06;81.06
77041;BME280;65974;42.664;23.264;2023-05-07T04:19:27;94667.84;;;8.14;81.32
77041;BME280;65974;42.664;23.264;2023-05-07T04:21:54;94673.69;;;8.23;80.73
77041;BME280;65974;42.664;23.264;2023-05-07T04:24:19;94675.72;;;8.30;80.58
77041;BME280;65974;42.664;23.264;2023-05-07T04:26:45;94675.16;;;8.43;79.75
77041;BME280;65974;42.664;23.264;2023-05-07T04:29:10;94676.41;;;8.49;79.41
77041;BME280;65974;42.664;23.264;2023-05-07T04:31:36;94681.09;;;8.59;79.28
77041;BME280;65974;42.664;23.264;2023-05-07T04:34:02;94685.75;;;8.70;79.04
77041;BME280;65974;42.664;23.264;2023-05-07T04:36:27;94687.75;;;8.76;78.53
77041;BME280;65974;42.664;23.264;2023-05-07T04:38:55;94692.41;;;8.83;78.74
77041;BME280;65974;42.664;23.264;2023-05-07T04:41:20;94700.06;;;8.88;78.19
77041;BME280;65974;42.664;23.264;2023-05-07T04:43:46;94699.03;;;8.96;78.45
77041;BME280;65974;42.664;23.264;2023-05-07T04:46:11;94693.03;;;9.02;78.65
77041;BME280;65974;42.664;23.264;2023-05-07T04:48:37;94693.06;;;9.06;78.64
77041;BME280;65974;42.664;23.264;2023-05-07T04:51:02;94695.09;;;9.16;78.27
77041;BME280;65974;42.664;23.264;2023-05-07T04:53:28;94692.84;;;9.18;78.40
77041;BME280;65974;42.664;23.264;2023-05-07T04:55:57;94696.75;;;9.27;78.19
77041;BME280;65974;42.664;23.264;2023-05-07T04:58:23;94688.13;;;9.37;77.88
77041;BME280;65974;42.664;23.264;2023-05-07T05:00:50;94684.13;;;9.54;77.80
77041;BME280;65974;42.664;23.264;2023-05-07T05:03:15;94686.88;;;9.61;77.29
77041;BME280;65974;42.664;23.264;2023-05-07T05:05:40;94686.97;;;9.68;77.21
77041;BME280;65974;42.664;23.264;2023-05-07T05:08:06;94685.59;;;9.85;76.84
77041;BME280;65974;42.664;23.264;2023-05-07T05:10:31;94690.13;;;9.81;76.73
77041;BME280;65974;42.664;23.264;2023-05-07T05:12:57;94683.69;;;9.85;76.23
77041;BME280;65974;42.664;23.264;2023-05-07T05:15:22;94686.75;;;9.87;76.54
77041;BME280;65974;42.664;23.264;2023-05-07T05:17:48;94683.41;;;9.94;76.39
77041;BME280;65974;42.664;23.264;2023-05-07T05:20:13;94684.22;;;10.01;75.97
77041;BME280;65974;42.664;23.264;2023-05-07T05:22:39;94680.94;;;10.15;76.13
77041;BME280;65974;42.664;23.264;2023-05-07T05:25:05;94685.56;;;10.22;76.03
77041;BME280;65974;42.664;23.264;2023-05-07T05:27:31;94683.78;;;10.36;76.14
77041;BME280;65974;42.664;23.264;2023-05-07T05:29:57;94678.19;;;10.52;75.36
77041;BME280;65974;42.664;23.264;2023-05-07T05:32:22;94679.31;;;10.54;74.75
77041;BME280;65974;42.664;23.264;2023-05-07T05:34:48;94687.72;;;10.56;74.91
77041;BME280;65974;42.664;23.264;2023-05-07T05:37:13;94682.44;;;10.60;74.60
77041;BME280;65974;42.664;23.264;2023-05-07T05:39:39;94684.81;;;10.79;74.08
77041;BME280;65974;42.664;23.264;2023-05-07T05:42:04;94686.38;;;10.87;73.70
77041;BME280;65974;42.664;23.264;2023-05-07T05:44:30;94685.28;;;10.95;73.64
77041;BME280;65974;42.664;23.264;2023-05-07T05:46:55;94688.00;;;11.02;73.26
77041;BME280;65974;42.664;23.264;2023-05-07T05:49:22;94684.22;;;11.10;73.10
77041;BME280;65974;42.664;23.264;2023-05-07T05:51:48;94680.09;;;11.23;72.97
77041;BME280;65974;42.664;23.264;2023-05-07T05:54:13;94685.06;;;11.28;72.28
77041;BME280;65974;42.664;23.264;2023-05-07T05:56:40;94684.72;;;11.37;72.55
77041;BME280;65974;42.664;23.264;2023-05-07T05:59:07;94687.41;;;11.37;72.24
77041;BME280;65974;42.664;23.264;2023-05-07T06:01:32;94691.97;;;11.33;72.43
77041;BME280;65974;42.664;23.264;2023-05-07T06:03:58;94692.72;;;11.40;72.08
77041;BME280;65974;42.664;23.264;2023-05-07T06:06:23;94688.19;;;11.51;72.34
77041;BME280;65974;42.664;23.264;2023-05-07T06:08:49;94694.34;;;11.62;72.14
77041;BME280;65974;42.664;23.264;2023-05-07T06:11:14;94692.84;;;11.68;71.47
77041;BME280;65974;42.664;23.264;2023-05-07T06:13:40;94684.84;;;11.76;71.20
77041;BME280;65974;42.664;23.264;2023-05-07T06:16:06;94681.06;;;11.84;71.09
77041;BME280;65974;42.664;23.264;2023-05-07T06:18:31;94688.34;;;12.15;70.33
77041;BME280;65974;42.664;23.264;2023-05-07T06:20:57;94686.06;;;12.10;70.20
77041;BME280;65974;42.664;23.264;2023-05-07T06:23:22;94688.34;;;12.18;69.65
77041;BME280;65974;42.664;23.264;2023-05-07T06:25:51;94683.00;;;12.15;69.06
77041;BME280;65974;42.664;23.264;2023-05-07T06:28:16;94675.78;;;12.36;68.70
77041;BME280;65974;42.664;23.264;2023-05-07T06:30:42;94675.75;;;12.51;67.74
77041;BME280;65974;42.664;23.264;2023-05-07T06:33:07;94663.16;;;12.44;67.88
77041;BME280;65974;42.664;23.264;2023-05-07T06:35:33;94665.47;;;12.49;67.58
77041;BME280;65974;42.664;23.264;2023-05-07T06:38:00;94673.84;;;12.58;67.52
77041;BME280;65974;42.664;23.264;2023-05-07T06:40:26;94671.53;;;12.64;67.59
77041;BME280;65974;42.664;23.264;2023-05-07T06:42:52;94667.72;;;12.72;67.68
77041;BME280;65974;42.664;23.264;2023-05-07T06:45:17;94658.56;;;12.80;66.51
77041;BME280;65974;42.664;23.264;2023-05-07T06:47:44;94662.34;;;12.79;66.30
77041;BME280;65974;42.664;23.264;2023-05-07T06:50:10;94666.53;;;12.90;66.99
77041;BME280;65974;42.664;23.264;2023-05-07T06:52:35;94661.94;;;12.98;66.03
77041;BME280;65974;42.664;23.264;2023-05-07T06:55:00;94662.25;;;13.24;65.01
77041;BME280;65974;42.664;23.264;2023-05-07T06:57:26;94654.22;;;13.24;65.29
77041;BME280;65974;42.664;23.264;2023-05-07T06:59:51;94654.56;;;13.34;65.22
77041;BME280;65974;42.664;23.264;2023-05-07T07:02:17;94654.91;;;13.43;64.50
77041;BME280;65974;42.664;23.264;2023-05-07T07:04:42;94660.19;;;13.57;64.72
77041;BME280;65974;42.664;23.264;2023-05-07T07:07:08;94660.59;;;13.55;63.83
77041;BME280;65974;42.664;23.264;2023-05-07T07:09:34;94657.56;;;13.50;63.54
77041;BME280;65974;42.664;23.264;2023-05-07T07:12:01;94656.00;;;13.52;63.38
77041;BME280;65974;42.664;23.264;2023-05-07T07:14:27;94658.63;;;13.66;63.00
77041;BME280;65974;42.664;23.264;2023-05-07T07:16:52;94656.28;;;13.75;62.57
77041;BME280;65974;42.664;23.264;2023-05-07T07:19:17;94647.00;;;13.87;62.37
77041;BME280;65974;42.664;23.264;2023-05-07T07:21:43;94649.16;;;14.10;62.04
77041;BME280;65974;42.664;23.264;2023-05-07T07:24:09;94651.38;;;14.22;61.58
77041;BME280;65974;42.664;23.264;2023-05-07T07:26:35;94646.09;;;14.11;61.04
77041;BME280;65974;42.664;23.264;2023-05-07T07:29:00;94639.91;;;14.18;60.87
77041;BME280;65974;42.664;23.264;2023-05-07T07:31:26;94649.00;;;14.27;60.86
77041;BME280;65974;42.664;23.264;2023-05-07T07:33:51;94644.78;;;14.33;60.26
77041;BME280;65974;42.664;23.264;2023-05-07T07:36:17;94641.69;;;14.38;59.60
77041;BME280;65974;42.664;23.264;2023-05-07T07:38:42;94641.06;;;14.64;59.56
77041;BME280;65974;42.664;23.264;2023-05-07T07:41:08;94650.78;;;14.89;59.01
77041;BME280;65974;42.664;23.264;2023-05-07T07:43:36;94648.09;;;14.89;57.84
77041;BME280;65974;42.664;23.264;2023-05-07T07:46:05;94650.00;;;14.92;57.41
77041;BME280;65974;42.664;23.264;2023-05-07T07:48:31;94656.94;;;14.86;56.78
77041;BME280;65974;42.664;23.264;2023-05-07T07:51:00;94654.88;;;15.00;56.84
77041;BME280;65974;42.664;23.264;2023-05-07T07:53:26;94659.22;;;15.24;57.08
77041;BME280;65974;42.664;23.264;2023-05-07T07:55:52;94654.09;;;15.37;55.34
77041;BME280;65974;42.664;23.264;2023-05-07T07:58:17;94661.78;;;15.35;55.67
77041;BME280;65974;42.664;23.264;2023-05-07T08:00:43;94654.81;;;15.41;54.61
77041;BME280;65974;42.664;23.264;2023-05-07T08:03:11;94646.34;;;15.46;55.61
77041;BME280;65974;42.664;23.264;2023-05-07T08:05:37;94648.13;;;15.56;55.17
77041;BME280;65974;42.664;23.264;2023-05-07T08:08:06;94641.97;;;15.86;54.06
77041;BME280;65974;42.664;23.264;2023-05-07T08:10:33;94641.03;;;15.96;55.14
77041;BME280;65974;42.664;23.264;2023-05-07T08:13:00;94651.66;;;15.80;54.54
77041;BME280;65974;42.664;23.264;2023-05-07T08:15:26;94639.72;;;15.81;55.09
77041;BME280;65974;42.664;23.264;2023-05-07T08:17:51;94645.66;;;15.95;54.89
77041;BME280;65974;42.664;23.264;2023-05-07T08:20:16;94634.34;;;16.07;53.93
77041;BME280;65974;42.664;23.264;2023-05-07T08:22:42;94635.25;;;15.97;53.45
77041;BME280;65974;42.664;23.264;2023-05-07T08:25:08;94634.16;;;15.95;53.52
77041;BME280;65974;42.664;23.264;2023-05-07T08:27:33;94645.84;;;16.08;53.79
77041;BME280;65974;42.664;23.264;2023-05-07T08:29:59;94633.88;;;16.12;53.64
77041;BME280;65974;42.664;23.264;2023-05-07T08:32:24;94632.97;;;16.22;53.89
77041;BME280;65974;42.664;23.264;2023-05-07T08:34:50;94631.78;;;16.23;53.48
77041;BME280;65974;42.664;23.264;2023-05-07T08:37:15;94630.22;;;16.49;54.56
77041;BME280;65974;42.664;23.264;2023-05-07T08:39:42;94629.13;;;16.70;52.62
77041;BME280;65974;42.664;23.264;2023-05-07T08:42:09;94624.69;;;17.02;52.51
77041;BME280;65974;42.664;23.264;2023-05-07T08:44:35;94624.25;;;17.04;51.70
77041;BME280;65974;42.664;23.264;2023-05-07T08:47:06;94624.91;;;17.12;50.81
77041;BME280;65974;42.664;23.264;2023-05-07T08:49:33;94621.91;;;17.06;50.69
77041;BME280;65974;42.664;23.264;2023-05-07T08:51:59;94622.25;;;17.08;50.85
77041;BME280;65974;42.664;23.264;2023-05-07T08:54:24;94621.03;;;17.13;50.90
77041;BME280;65974;42.664;23.264;2023-05-07T08:56:51;94620.69;;;17.11;50.16
77041;BME280;65974;42.664;23.264;2023-05-07T08:59:16;94614.13;;;17.12;50.04
77041;BME280;65974;42.664;23.264;2023-05-07T09:01:42;94613.84;;;17.26;51.06
77041;BME280;65974;42.664;23.264;2023-05-07T09:04:07;94611.97;;;17.42;49.76
77041;BME280;65974;42.664;23.264;2023-05-07T09:06:34;94608.75;;;17.87;47.34
77041;BME280;65974;42.664;23.264;2023-05-07T09:09:00;94609.09;;;18.05;47.28
77041;BME280;65974;42.664;23.264;2023-05-07T09:11:27;94596.19;;;18.12;47.67
77041;BME280;65974;42.664;23.264;2023-05-07T09:13:56;94596.78;;;18.20;47.71
77041;BME280;65974;42.664;23.264;2023-05-07T09:16:25;94594.19;;;18.16;47.58
77041;BME280;65974;42.664;23.264;2023-05-07T09:18:52;94593.84;;;18.30;46.98
77041;BME280;65974;42.664;23.264;2023-05-07T09:21:18;94600.00;;;18.47;46.75
77041;BME280;65974;42.664;23.264;2023-05-07T09:23:44;94581.56;;;18.74;45.92
77041;BME280;65974;42.664;23.264;2023-05-07T09:26:10;94587.88;;;18.84;44.60
77041;BME280;65974;42.664;23.264;2023-05-07T09:28:40;94588.66;;;18.84;45.65
77041;BME280;65974;42.664;23.264;2023-05-07T09:31:08;94584.41;;;18.83;45.40
77041;BME280;65974;42.664;23.264;2023-05-07T09:33:33;94577.38;;;18.73;44.33
77041;BME280;65974;42.664;23.264;2023-05-07T09:36:03;94578.38;;;18.79;45.28
77041;BME280;65974;42.664;23.264;2023-05-07T09:38:28;94579.84;;;18.96;45.72
77041;BME280;65974;42.664;23.264;2023-05-07T09:41:04;94570.94;;;18.83;45.02
77041;BME280;65974;42.664;23.264;2023-05-07T09:43:38;94573.78;;;18.92;45.31
77041;BME280;65974;42.664;23.264;2023-05-07T09:46:13;94578.03;;;19.06;43.66
77041;BME280;65974;42.664;23.264;2023-05-07T09:48:41;94573.22;;;19.26;43.94
77041;BME280;65974;42.664;23.264;2023-05-07T09:53:43;94565.97;;;19.23;43.40
77041;BME280;65974;42.664;23.264;2023-05-07T09:56:09;94568.84;;;19.03;43.57
77041;BME280;65974;42.664;23.264;2023-05-07T09:58:37;94570.38;;;18.76;44.01
77041;BME280;65974;42.664;23.264;2023-05-07T10:01:04;94563.59;;;18.84;42.90
77041;BME280;65974;42.664;23.264;2023-05-07T10:03:31;94562.66;;;18.90;43.26
77041;BME280;65974;42.664;23.264;2023-05-07T10:05:58;94568.72;;;18.94;42.08
77041;BME280;65974;42.664;23.264;2023-05-07T10:08:24;94566.44;;;18.93;42.15
77041;BME280;65974;42.664;23.264;2023-05-07T10:10:49;94559.81;;;18.81;41.38
77041;BME280;65974;42.664;23.264;2023-05-07T10:13:17;94567.25;;;18.77;42.87
77041;BME280;65974;42.664;23.264;2023-05-07T10:15:42;94555.94;;;18.82;43.21
77041;BME280;65974;42.664;23.264;2023-05-07T10:18:08;94560.47;;;18.85;42.99
77041;BME280;65974;42.664;23.264;2023-05-07T10:20:34;94556.19;;;19.00;42.99
77041;BME280;65974;42.664;23.264;2023-05-07T10:23:03;94550.47;;;18.98;41.38
77041;BME280;65974;42.664;23.264;2023-05-07T10:25:29;94545.84;;;18.99;41.71
77041;BME280;65974;42.664;23.264;2023-05-07T10:27:57;94547.25;;;19.03;42.29
77041;BME280;65974;42.664;23.264;2023-05-07T10:30:48;94542.88;;;18.93;40.89
77041;BME280;65974;42.664;23.264;2023-05-07T10:33:21;94541.81;;;18.91;40.92
77041;BME280;65974;42.664;23.264;2023-05-07T10:35:49;94534.38;;;18.95;40.47
77041;BME280;65974;42.664;23.264;2023-05-07T10:38:15;94543.00;;;18.90;39.98
77041;BME280;65974;42.664;23.264;2023-05-07T10:40:40;94534.25;;;18.86;40.71
77041;BME280;65974;42.664;23.264;2023-05-07T10:43:06;94541.53;;;19.01;41.29
77041;BME280;65974;42.664;23.264;2023-05-07T10:45:32;94530.75;;;19.14;41.23
77041;BME280;65974;42.664;23.264;2023-05-07T10:50:33;94527.53;;;19.31;40.44
77041;BME280;65974;42.664;23.264;2023-05-07T10:58:43;94512.84;;;20.08;40.11
77041;BME280;65974;42.664;23.264;2023-05-07T11:01:09;94518.44;;;20.13;39.70
77041;BME280;65974;42.664;23.264;2023-05-07T11:04:17;94517.38;;;19.98;39.33
77041;BME280;65974;42.664;23.264;2023-05-07T11:15:12;94510.44;;;20.57;38.10
77041;BME280;65974;42.664;23.264;2023-05-07T11:17:57;94511.69;;;20.43;35.86
77041;BME280;65974;42.664;23.264;2023-05-07T11:20:45;94499.06;;;20.15;37.20
77041;BME280;65974;42.664;23.264;2023-05-07T11:28:43;94503.56;;;20.43;36.86
77041;BME280;65974;42.664;23.264;2023-05-07T11:31:10;94496.22;;;20.44;35.54
77041;BME280;65974;42.664;23.264;2023-05-07T11:33:37;94495.41;;;20.56;35.99
77041;BME280;65974;42.664;23.264;2023-05-07T11:36:03;94502.19;;;20.60;35.93
77041;BME280;65974;42.664;23.264;2023-05-07T11:38:36;94500.69;;;20.59;35.38
77041;BME280;65974;42.664;23.264;2023-05-07T11:41:02;94499.72;;;20.53;35.37
77041;BME280;65974;42.664;23.264;2023-05-07T11:43:30;94495.91;;;20.42;35.78
77041;BME280;65974;42.664;23.264;2023-05-07T11:46:11;94489.81;;;20.50;35.88
77041;BME280;65974;42.664;23.264;2023-05-07T11:48:37;94487.81;;;20.63;35.89
77041;BME280;65974;42.664;23.264;2023-05-07T11:51:06;94485.91;;;20.73;35.94
77041;BME280;65974;42.664;23.264;2023-05-07T11:53:41;94491.56;;;20.87;35.95
77041;BME280;65974;42.664;23.264;2023-05-07T11:56:14;94489.47;;;20.92;35.72
77041;BME280;65974;42.664;23.264;2023-05-07T11:58:41;94488.78;;;21.00;35.54
77041;BME280;65974;42.664;23.264;2023-05-07T12:01:11;94481.31;;;21.04;34.99
77041;BME280;65974;42.664;23.264;2023-05-07T12:03:42;94490.69;;;20.91;35.19
77041;BME280;65974;42.664;23.264;2023-05-07T12:06:08;94480.41;;;21.29;35.29
77041;BME280;65974;42.664;23.264;2023-05-07T12:08:37;94476.22;;;21.37;34.82
77041;BME280;65974;42.664;23.264;2023-05-07T12:11:03;94469.91;;;21.40;34.68
77041;BME280;65974;42.664;23.264;2023-05-07T12:13:29;94464.16;;;21.29;34.79
77041;BME280;65974;42.664;23.264;2023-05-07T12:15:56;94468.25;;;21.42;33.65
77041;BME280;65974;42.664;23.264;2023-05-07T12:18:22;94467.09;;;21.52;34.22
77041;BME280;65974;42.664;23.264;2023-05-07T12:20:49;94468.59;;;21.44;34.51
77041;BME280;65974;42.664;23.264;2023-05-07T12:23:16;94466.53;;;21.67;33.47
77041;BME280;65974;42.664;23.264;2023-05-07T12:25:43;94452.03;;;21.91;33.08
77041;BME280;65974;42.664;23.264;2023-05-07T12:28:18;94450.50;;;21.90;33.27
77041;BME280;65974;42.664;23.264;2023-05-07T12:30:46;94449.66;;;22.20;33.51
77041;BME280;65974;42.664;23.264;2023-05-07T12:33:14;94453.84;;;22.03;33.60
77041;BME280;65974;42.664;23.264;2023-05-07T12:35:42;94447.06;;;22.08;32.91
77041;BME280;65974;42.664;23.264;2023-05-07T12:38:09;94433.34;;;22.38;33.16
77041;BME280;65974;42.664;23.264;2023-05-07T12:40:42;94438.97;;;22.62;32.59
77041;BME280;65974;42.664;23.264;2023-05-07T12:43:15;94431.63;;;23.04;30.48
77041;BME280;65974;42.664;23.264;2023-05-07T12:45:41;94428.50;;;22.97;30.71
77041;BME280;65974;42.664;23.264;2023-05-07T12:48:09;94421.59;;;22.51;32.11
77041;BME280;65974;42.664;23.264;2023-05-07T12:50:35;94428.53;;;22.24;32.25
77041;BME280;65974;42.664;23.264;2023-05-07T12:53:03;94428.00;;;21.81;32.95
77041;BME280;65974;42.664;23.264;2023-05-07T12:55:32;94409.91;;;21.69;33.18
77041;BME280;65974;42.664;23.264;2023-05-07T12:58:00;94420.16;;;21.64;33.67
77041;BME280;65974;42.664;23.264;2023-05-07T13:00:38;94409.38;;;21.43;33.99
77041;BME280;65974;42.664;23.264;2023-05-07T13:03:04;94413.44;;;21.38;34.52
77041;BME280;65974;42.664;23.264;2023-05-07T13:05:31;94412.91;;;21.52;33.48
77041;BME280;65974;42.664;23.264;2023-05-07T13:07:56;94403.22;;;21.91;33.49
77041;BME280;65974;42.664;23.264;2023-05-07T13:10:23;94406.38;;;22.62;31.74
77041;BME280;65974;42.664;23.264;2023-05-07T13:12:49;94402.38;;;22.99;31.71
77041;BME280;65974;42.664;23.264;2023-05-07T13:15:15;94395.66;;;23.60;29.72
77041;BME280;65974;42.664;23.264;2023-05-07T13:17:41;94399.94;;;23.76;29.94